Flugplatz Salzgitter-Schäferstuhl

Für EDVJ sind keine METAR/TAF Berichte vorhanden.
Es werden die Flugwettermeldungen vom Flugplatz Braunschweig Wolfsburg in 34 km Entfernung angezeigt.

Bericht für EDVE

vom 25.10. um 15:50 UTC

variable Windrichtung mit 2 kt

Sichtweite 10 km oder mehr

gute Sicht, keine Wolken < 5000 ft, keine CB, keine Wettererscheinungen (CAVOK)

Temperatur 11.0°C

Taupunkt 5.0°C

Luftfeuchtigkeit 66%

Luftdruck 1018 hPa

EDVE 251550Z VRB02KT CAVOK 11/05 Q1018

Prognose für EDVE

vom 25.10. um 14:00 UTC

Zwischen 15:00 UTC und 21:00 UTC

Wind 5 kt aus 210°

Sichtweite 10 km oder mehr

gering bewölkt in 4000 ft

TAF EDVE 251400Z 2515/2521 21005KT 9999 FEW040
Impressum